createdAt,value
2023-04-07T14:02:38.617Z,3.05
2023-04-07T14:05:07.283Z,3.65
2023-04-07T14:07:35.307Z,3.00
2023-04-07T14:10:03.548Z,3.28
2023-04-07T14:12:31.648Z,3.33
2023-04-07T14:14:59.659Z,3.40
2023-04-07T14:17:27.664Z,3.10
2023-04-07T14:19:57.045Z,3.50
2023-04-07T14:22:25.045Z,3.17
2023-04-07T14:24:53.029Z,2.90
2023-04-07T14:27:22.344Z,3.30
2023-04-07T14:29:50.451Z,2.70
2023-04-07T14:32:18.667Z,3.25
2023-04-07T14:34:46.619Z,3.17
2023-04-07T14:37:18.138Z,2.58
2023-04-07T14:39:59.359Z,3.13
2023-04-07T14:42:30.703Z,2.83
2023-04-07T14:45:00.084Z,2.65
2023-04-07T14:47:28.120Z,2.50
2023-04-07T14:49:56.555Z,2.88
2023-04-07T14:52:25.954Z,2.42
2023-04-07T14:54:54.066Z,2.95
2023-04-07T14:57:22.323Z,3.47
2023-04-07T14:59:50.394Z,2.50
2023-04-07T15:02:18.522Z,2.78
2023-04-07T15:04:46.872Z,2.80
2023-04-07T15:07:15.467Z,2.15
2023-04-07T15:09:45.172Z,2.10
2023-04-07T15:12:13.148Z,2.17
2023-04-07T15:14:41.786Z,2.20
2023-04-07T15:17:09.783Z,2.33
2023-04-07T15:19:37.763Z,2.33
2023-04-07T15:22:05.934Z,2.50
2023-04-07T15:24:33.866Z,2.83
2023-04-07T15:27:03.348Z,1.67
2023-04-07T15:29:31.496Z,1.60
2023-04-07T15:31:59.622Z,1.70
2023-04-07T15:34:27.623Z,1.77
2023-04-07T15:36:55.681Z,1.70
2023-04-07T15:39:24.130Z,1.60
2023-04-07T15:41:52.048Z,1.70
2023-04-07T15:44:21.388Z,1.48
2023-04-07T15:46:49.631Z,1.70
2023-04-07T15:49:24.258Z,1.70
2023-04-07T15:51:53.718Z,1.88
2023-04-07T15:54:21.725Z,1.90
2023-04-07T15:56:49.652Z,1.85
2023-04-07T15:59:17.595Z,1.50
2023-04-07T16:01:46.938Z,2.08
2023-04-07T16:04:15.316Z,1.75
2023-04-07T16:06:43.570Z,8.20
2023-04-07T16:09:11.518Z,3.42
2023-04-07T16:11:39.535Z,2.10
2023-04-07T16:14:09.219Z,1.98
2023-04-07T16:16:40.758Z,2.17
2023-04-07T16:19:10.596Z,1.90
2023-04-07T16:21:39.446Z,2.17
2023-04-07T16:24:07.478Z,2.30
2023-04-07T16:26:35.575Z,2.60
2023-04-07T16:29:03.528Z,2.60
2023-04-07T16:31:31.440Z,2.83
2023-04-07T16:33:59.621Z,3.03
2023-04-07T16:36:28.904Z,2.95
2023-04-07T16:38:57.659Z,3.33
2023-04-07T16:41:26.301Z,3.97
2023-04-07T16:43:54.351Z,3.35
2023-04-07T16:46:25.860Z,3.58
2023-04-07T16:48:53.953Z,3.28
2023-04-07T16:51:22.192Z,2.72
2023-04-07T16:53:51.574Z,3.13
2023-04-07T16:56:21.293Z,3.45
2023-04-07T16:58:49.732Z,3.65
2023-04-07T17:01:18.468Z,3.80
2023-04-07T17:03:48.775Z,3.80
2023-04-07T17:06:17.396Z,3.67
2023-04-07T17:08:45.376Z,4.13
2023-04-07T17:11:14.748Z,4.10
2023-04-07T17:13:42.695Z,4.68
2023-04-07T17:16:14.782Z,3.85
2023-04-07T17:18:42.810Z,4.20
2023-04-07T17:21:10.716Z,4.07
2023-04-07T17:23:38.728Z,4.30
2023-04-07T17:26:06.757Z,4.47
2023-04-07T17:28:36.170Z,5.32
2023-04-07T17:31:04.195Z,5.53
2023-04-07T17:33:32.152Z,6.30
2023-04-07T17:36:02.872Z,6.10
2023-04-07T17:38:31.474Z,6.75
2023-04-07T17:40:59.942Z,5.97
2023-04-07T17:43:28.582Z,5.70
2023-04-07T17:45:58.245Z,6.03
2023-04-07T17:48:26.555Z,6.45
2023-04-07T17:50:54.586Z,6.32
2023-04-07T17:53:22.533Z,6.75
2023-04-07T17:55:50.719Z,5.93
2023-04-07T17:58:20.064Z,5.53
2023-04-07T18:00:48.526Z,5.40
2023-04-07T18:03:19.231Z,5.35
2023-04-07T18:05:47.859Z,4.72
2023-04-07T18:08:15.823Z,4.50
2023-04-07T18:10:43.968Z,4.05
2023-04-07T18:13:12.043Z,2.85
2023-04-07T18:15:40.024Z,3.00
2023-04-07T18:18:08.072Z,2.70
2023-04-07T18:20:37.768Z,2.67
2023-04-07T18:23:08.295Z,2.70
2023-04-07T18:25:36.534Z,2.80
2023-04-07T18:28:04.593Z,2.75
2023-04-07T18:30:32.546Z,4.03
2023-04-07T18:33:00.784Z,3.45
2023-04-07T18:35:29.003Z,3.38
2023-04-07T18:37:59.184Z,2.60
2023-04-07T18:40:29.931Z,2.85
2023-04-07T18:42:58.263Z,3.20
2023-04-07T18:45:26.218Z,2.92
2023-04-07T18:47:54.308Z,3.03
2023-04-07T18:50:22.274Z,2.92
2023-04-07T18:52:50.557Z,3.08
2023-04-07T18:55:20.734Z,2.97
2023-04-07T18:57:48.783Z,2.97
2023-04-07T19:00:16.997Z,2.80
2023-04-07T19:02:45.154Z,3.03
2023-04-07T19:05:13.584Z,2.90
2023-04-07T19:07:41.926Z,3.00
2023-04-07T19:10:10.557Z,3.33
2023-04-07T19:12:40.119Z,3.67
2023-04-07T19:15:09.367Z,3.90
2023-04-07T19:17:37.756Z,3.75
2023-04-07T19:20:06.720Z,4.03
2023-04-07T19:22:34.807Z,4.22
2023-04-07T19:25:03.000Z,4.25
2023-04-07T19:27:31.268Z,4.18
2023-04-07T19:30:00.689Z,4.00
2023-04-07T19:32:29.246Z,3.97
2023-04-07T19:34:57.784Z,4.50
2023-04-07T19:37:26.079Z,4.75
2023-04-07T19:40:02.169Z,10.68
2023-04-07T19:42:31.495Z,10.68
2023-04-07T19:45:02.367Z,6.53
2023-04-07T19:47:30.590Z,7.18
2023-04-07T19:49:58.676Z,14.38
2023-04-07T19:52:26.755Z,8.50
2023-04-07T19:54:54.716Z,13.05
2023-04-07T19:57:22.823Z,14.73
2023-04-07T19:59:50.816Z,9.20
